Salt Point, NY (12578)

10:19 PM EDT on July 30, 2016 (GMT -0400)
Camp Nooteming Road | | Change Station

Elev 252 ft 41.79 °N, 73.78 °W | Updated 7 minutes ago

Light Rain
Light Rain
70.7 °F
Feels Like 70.7 °F
N
0.6
Wind Variable Wind from WSW
Gusts 1.9 mph

Today
High -- | Low -- °F
--% Chance of Precip.
Yesterday
High -- | Low -- °F
Precip. -- in
Pressure 30.05 in
Visibility 7.0 miles
Clouds Few 1000 ft
Dew Point 66 °F
Humidity 85%
Rainfall Not available.
Snow Depth Not available.
5:47 AM 8:14 PM
Waning Crescent, 9% visible
SPECI KPOU 310215Z 03004KT 7SM -RA FEW010 23/21 A3005 RMK AO2 RAB14 P0001 T02280206
Pressure 30.05 in
Visibility 7.0 miles
Clouds Few 1000 ft
Dew Point 66 °F
Humidity 85%
Rainfall Not available.
Snow Depth Not available.
5:47 AM 8:14 PM
Waning Crescent, 9% visible
SPECI KPOU 310215Z 03004KT 7SM -RA FEW010 23/21 A3005 RMK AO2 RAB14 P0001 T02280206

10-Day Weather Forecast

Almanac

Astronomy

Jul. 30, 2016 Rise Set
Actual Time
Civil Twilight
Nautical Twilight
Astronomical Twilight
Moon
Length of Visible Light
Length of Day
Tomorrow will be .
, % of the Moon is Illuminated

Today's Extremes

State Highs State Lows

Community

WunderPhotos

Upload Photos

1,928,706 photos uploaded!

WunderBlog® & News

Nearby

Air Quality

  Air Quality AQ Index Pollutant
Not available.

Snow Depth

Station Depth Elevation

Earthquake Activity

City Distance Mag. Time & Date
Minimum magnitude displayed is 2.5.

Coastal Water Temperatures

Place Temperature

Stations

Nearby Weather Stations

Station Location Temp. Windchill Dew Point Humidity Wind Precip. Elev Updated Type
                   

Watches & Warnings

There are currently no watches in effect.